Terminal Aerodrome Forecast
Issued by NWS

Home | Current Version | Previous Version | Text Only | Print | Product List | Glossary On
Versions: 1 2 3 4 5 6 7 8 9 10 11 12 13 14 15 16 17 18
000
FTUS46 KSEW 021900 AAA
TAFPAE
TAF AMD
KPAE 021941Z 0220/0318 VRB04KT P6SM BKN020 OVC025
     FM022100 21010KT P6SM -SHRA OVC025
     FM030300 35006KT P6SM -SHRA OVC020
     FM030600 VRB04KT P6SM VCSH OVC025
     FM031200 17005KT P6SM BKN015 OVC025
      TEMPO 0312/0314 5SM BR OVC008=

USA.gov is the U.S. government's official web portal to all federal, state and local government web resources and services.